createdAt,value
2022-09-23T00:00:43.628Z,5.03
2022-09-23T00:03:13.230Z,4.87
2022-09-23T00:05:41.440Z,3.30
2022-09-23T00:08:09.747Z,5.17
2022-09-23T00:10:38.278Z,5.00
2022-09-23T00:13:06.914Z,5.00
2022-09-23T00:15:39.234Z,4.40
2022-09-23T00:18:08.090Z,3.90
2022-09-23T00:20:37.814Z,3.03
2022-09-23T00:23:06.104Z,6.07
2022-09-23T00:25:34.290Z,5.30
2022-09-23T00:28:03.188Z,3.80
2022-09-23T00:30:32.397Z,3.70
2022-09-23T00:33:00.667Z,2.63
2022-09-23T00:35:28.850Z,3.23
2022-09-23T00:37:58.419Z,3.87
2022-09-23T00:40:26.716Z,2.10
2022-09-23T00:42:54.941Z,2.30
2022-09-23T00:45:23.195Z,3.47
2022-09-23T00:47:52.863Z,3.43
2022-09-23T00:50:23.299Z,3.07
2022-09-23T00:52:51.565Z,3.53
2022-09-23T00:55:21.702Z,3.10
2022-09-23T00:57:49.985Z,4.33
2022-09-23T01:00:18.441Z,3.37
2022-09-23T01:02:46.764Z,2.97
2022-09-23T01:05:15.054Z,5.63
2022-09-23T01:07:43.265Z,3.87
2022-09-23T01:10:11.696Z,5.47
2022-09-23T01:12:45.782Z,3.87
2022-09-23T01:15:16.628Z,4.23
2022-09-23T01:17:47.444Z,3.07
2022-09-23T01:20:28.364Z,4.83
2022-09-23T01:22:58.529Z,4.17
2022-09-23T01:25:29.453Z,5.20
2022-09-23T01:28:07.062Z,5.83
2022-09-23T01:30:39.650Z,3.07
2022-09-23T01:33:11.144Z,3.90
2022-09-23T01:35:42.982Z,4.87
2022-09-23T01:38:13.920Z,4.20
2022-09-23T01:40:45.978Z,5.47
2022-09-23T01:43:15.669Z,6.33
2022-09-23T01:45:45.894Z,3.27
2022-09-23T01:48:15.607Z,6.70
2022-09-23T01:50:59.724Z,4.50
2022-09-23T01:53:30.909Z,3.80
2022-09-23T01:56:00.464Z,6.23
2022-09-23T01:58:29.176Z,3.83
2022-09-23T02:00:59.814Z,7.37
2022-09-23T02:03:28.501Z,4.47
2022-09-23T02:05:57.934Z,8.07
2022-09-23T02:08:26.634Z,6.33
2022-09-23T02:10:56.153Z,7.80
2022-09-23T02:13:25.432Z,8.23
2022-09-23T02:15:54.549Z,5.47
2022-09-23T02:18:24.532Z,5.33
2022-09-23T02:20:52.930Z,5.00
2022-09-23T02:23:21.444Z,6.93
2022-09-23T02:25:51.693Z,6.33
2022-09-23T02:28:20.247Z,7.70
2022-09-23T02:30:49.556Z,6.97
2022-09-23T02:33:19.306Z,5.63
2022-09-23T02:35:50.137Z,5.63
2022-09-23T02:38:19.779Z,7.60
2022-09-23T02:40:50.669Z,5.87
2022-09-23T02:43:19.897Z,9.07
2022-09-23T02:45:48.245Z,8.80
2022-09-23T02:48:18.542Z,6.40
2022-09-23T02:50:47.654Z,6.80
2022-09-23T02:53:17.239Z,11.10
2022-09-23T02:55:45.680Z,7.10
2022-09-23T02:58:14.040Z,7.20
2022-09-23T03:00:45.103Z,6.87
2022-09-23T03:03:18.717Z,6.90
2022-09-23T03:05:47.872Z,9.23
2022-09-23T03:08:21.446Z,7.27
2022-09-23T03:10:53.002Z,7.00
2022-09-23T03:13:27.380Z,6.47
2022-09-23T03:16:01.243Z,6.50
2022-09-23T03:18:32.309Z,5.73
2022-09-23T03:21:00.735Z,7.70
2022-09-23T03:23:30.959Z,6.27
2022-09-23T03:25:59.513Z,7.67
2022-09-23T03:28:27.703Z,6.20
2022-09-23T03:30:55.913Z,7.10
2022-09-23T03:33:28.398Z,6.93
2022-09-23T03:36:16.545Z,5.67
2022-09-23T03:38:46.587Z,8.23
2022-09-23T03:41:16.632Z,6.77
2022-09-23T03:43:45.029Z,5.60
2022-09-23T03:46:13.321Z,6.43
2022-09-23T03:48:41.547Z,6.77
2022-09-23T03:51:10.653Z,5.67
2022-09-23T03:53:39.617Z,4.90
2022-09-23T03:56:11.611Z,4.60
2022-09-23T03:58:39.913Z,5.80
2022-09-23T04:01:08.147Z,5.93
2022-09-23T04:03:36.565Z,7.80
2022-09-23T04:06:05.175Z,6.77
2022-09-23T04:08:33.359Z,5.80
2022-09-23T04:11:01.995Z,4.77
2022-09-23T04:13:31.583Z,5.37
2022-09-23T04:15:59.846Z,6.53
2022-09-23T04:18:28.081Z,5.07
2022-09-23T04:20:58.738Z,5.17
2022-09-23T04:23:26.969Z,5.93
2022-09-23T04:25:55.442Z,5.87
2022-09-23T04:28:23.773Z,3.73
2022-09-23T04:30:54.453Z,5.37
2022-09-23T04:33:22.674Z,5.57
2022-09-23T04:35:51.721Z,6.23
2022-09-23T04:38:19.958Z,6.73
2022-09-23T04:40:48.253Z,5.10
2022-09-23T04:43:16.834Z,5.60
2022-09-23T04:45:45.171Z,5.10
2022-09-23T04:48:14.721Z,4.80
2022-09-23T04:50:42.990Z,5.63
2022-09-23T04:53:11.197Z,5.37
2022-09-23T04:55:39.425Z,5.90
2022-09-23T04:58:09.063Z,5.97
2022-09-23T05:00:37.311Z,5.70
2022-09-23T05:03:05.724Z,5.90
2022-09-23T05:05:35.324Z,3.97
2022-09-23T05:08:03.806Z,4.03
2022-09-23T05:10:32.166Z,3.87
2022-09-23T05:13:00.456Z,5.77
2022-09-23T05:15:29.150Z,4.83
2022-09-23T05:17:59.107Z,4.10
2022-09-23T05:20:27.381Z,5.10
2022-09-23T05:22:56.949Z,4.00
2022-09-23T05:25:25.181Z,4.47
2022-09-23T05:27:53.411Z,7.20
2022-09-23T05:30:21.624Z,5.77
2022-09-23T05:32:49.812Z,3.80
2022-09-23T05:35:18.129Z,4.20
2022-09-23T05:37:46.353Z,4.40
2022-09-23T05:40:15.963Z,3.83
2022-09-23T05:42:44.312Z,3.50
2022-09-23T05:45:12.685Z,3.93
2022-09-23T05:47:40.902Z,3.23
2022-09-23T05:50:09.523Z,5.53
2022-09-23T05:52:37.732Z,4.33
2022-09-23T05:55:06.292Z,4.47
2022-09-23T05:57:35.916Z,4.03
2022-09-23T06:00:04.645Z,5.00
2022-09-23T06:02:33.058Z,4.47
2022-09-23T06:05:01.777Z,5.57
2022-09-23T06:07:32.665Z,5.73
2022-09-23T06:10:00.881Z,4.10
2022-09-23T06:12:29.221Z,4.73
2022-09-23T06:14:58.995Z,3.50
2022-09-23T06:17:27.189Z,3.50
2022-09-23T06:19:55.467Z,5.67
2022-09-23T06:22:26.278Z,4.77
2022-09-23T06:24:54.539Z,3.43
2022-09-23T06:27:22.879Z,2.93
2022-09-23T06:29:52.441Z,3.90
2022-09-23T06:32:25.797Z,2.90
2022-09-23T06:34:54.036Z,3.07
2022-09-23T06:37:23.336Z,3.50
2022-09-23T06:39:52.567Z,3.77
2022-09-23T06:42:20.791Z,5.53
2022-09-23T06:44:49.035Z,3.27
2022-09-23T06:47:17.271Z,4.07
2022-09-23T06:49:46.870Z,2.97
2022-09-23T06:52:15.262Z,2.77
2022-09-23T06:54:43.470Z,2.37
2022-09-23T06:57:11.746Z,3.33
2022-09-23T06:59:40.081Z,2.90
2022-09-23T07:02:08.635Z,3.43
2022-09-23T07:04:37.029Z,2.80
2022-09-23T07:07:06.836Z,4.13
2022-09-23T07:09:35.058Z,3.47
2022-09-23T07:12:03.493Z,3.70
2022-09-23T07:14:31.824Z,2.77
2022-09-23T07:17:00.337Z,3.90
2022-09-23T07:19:28.575Z,3.03
2022-09-23T07:21:57.150Z,3.47
2022-09-23T07:24:26.821Z,3.13
2022-09-23T07:26:55.532Z,5.10
2022-09-23T07:29:23.893Z,6.37
2022-09-23T07:31:52.895Z,3.57
2022-09-23T07:34:22.315Z,4.80
2022-09-23T07:36:50.525Z,6.50
2022-09-23T07:39:18.730Z,6.17
2022-09-23T07:41:49.291Z,4.90
2022-09-23T07:44:19.141Z,7.37
2022-09-23T07:46:47.480Z,5.47
2022-09-23T07:49:15.759Z,5.70
2022-09-23T07:51:46.071Z,7.87
2022-09-23T07:54:14.705Z,9.63
2022-09-23T07:56:42.994Z,7.57
2022-09-23T07:59:15.389Z,6.63
2022-09-23T08:01:44.716Z,7.83
2022-09-23T08:04:13.665Z,9.60
2022-09-23T08:06:43.210Z,8.83
2022-09-23T08:09:11.590Z,9.50
2022-09-23T08:11:42.064Z,10.87
2022-09-23T08:14:10.689Z,7.40
2022-09-23T08:16:40.241Z,8.40
2022-09-23T08:19:08.439Z,12.77
2022-09-23T08:21:39.391Z,12.73
2022-09-23T08:24:07.955Z,17.50
2022-09-23T08:26:36.489Z,11.83
2022-09-23T08:29:04.880Z,12.17
2022-09-23T08:31:33.095Z,16.77
2022-09-23T08:34:02.800Z,13.03
2022-09-23T08:36:31.183Z,16.60
2022-09-23T08:38:59.432Z,13.37
2022-09-23T08:41:29.762Z,12.83
2022-09-23T08:43:58.482Z,11.93
2022-09-23T08:46:27.870Z,17.47
2022-09-23T08:48:56.109Z,13.43
2022-09-23T08:51:27.489Z,15.70
2022-09-23T08:53:55.702Z,18.33
2022-09-23T08:56:24.288Z,15.83
2022-09-23T08:58:56.497Z,19.87
2022-09-23T09:01:25.154Z,19.20
2022-09-23T09:03:54.275Z,19.77
2022-09-23T09:06:23.313Z,19.03
2022-09-23T09:08:56.993Z,18.50
2022-09-23T09:11:25.700Z,19.33
2022-09-23T09:13:55.425Z,13.10
2022-09-23T09:16:55.648Z,17.53
2022-09-23T09:19:19.721Z,22.47
2022-09-23T09:21:48.587Z,18.97
2022-09-23T09:24:23.544Z,19.37
2022-09-23T09:26:52.233Z,15.07
2022-09-23T09:29:34.851Z,15.80
2022-09-23T09:32:03.997Z,17.00
2022-09-23T09:34:32.606Z,21.23
2022-09-23T09:37:07.570Z,17.60
2022-09-23T09:39:37.481Z,16.77
2022-09-23T09:42:06.468Z,15.30
2022-09-23T09:44:37.365Z,13.43
2022-09-23T09:47:16.713Z,16.17
2022-09-23T09:49:47.538Z,13.70
2022-09-23T09:52:20.360Z,16.53
2022-09-23T09:54:50.987Z,16.23
2022-09-23T09:57:20.371Z,19.77
2022-09-23T09:59:48.666Z,17.53
2022-09-23T10:02:23.286Z,18.20
2022-09-23T10:04:55.893Z,19.27
2022-09-23T10:07:26.462Z,17.83
2022-09-23T10:10:01.913Z,21.27
2022-09-23T10:12:45.708Z,14.27
2022-09-23T10:15:26.222Z,13.30
2022-09-23T10:17:54.609Z,19.50
2022-09-23T10:20:22.945Z,17.17
2022-09-23T10:22:51.137Z,19.90
2022-09-23T10:25:22.424Z,14.40
2022-09-23T10:27:50.675Z,14.13
2022-09-23T10:30:22.339Z,18.30
2022-09-23T10:32:50.679Z,21.10
2022-09-23T10:35:21.038Z,19.00
2022-09-23T10:37:50.011Z,12.67
2022-09-23T10:40:37.144Z,11.07
2022-09-23T10:43:27.949Z,17.63
2022-09-23T10:46:14.156Z,10.30
2022-09-23T10:48:45.398Z,15.50
2022-09-23T10:51:15.444Z,11.63
2022-09-23T10:53:47.667Z,11.97
2022-09-23T10:56:21.545Z,9.27
2022-09-23T10:59:14.424Z,12.47
2022-09-23T11:01:45.413Z,14.93
2022-09-23T11:04:21.351Z,12.57
2022-09-23T11:06:53.050Z,10.73
2022-09-23T11:09:25.406Z,12.60
2022-09-23T11:11:58.585Z,9.97
2022-09-23T11:14:38.859Z,14.60
2022-09-23T11:17:14.559Z,12.10
2022-09-23T11:19:50.923Z,12.63
2022-09-23T11:22:23.235Z,13.67
2022-09-23T11:25:02.729Z,10.03
2022-09-23T11:27:38.121Z,9.03
2022-09-23T11:30:10.559Z,7.30
2022-09-23T11:32:53.670Z,8.47
2022-09-23T11:35:22.910Z,8.80
2022-09-23T11:37:52.300Z,8.90
2022-09-23T11:40:21.112Z,9.37
2022-09-23T11:42:52.906Z,8.37
2022-09-23T11:45:23.375Z,7.33
2022-09-23T11:47:53.839Z,8.07
2022-09-23T11:50:25.824Z,8.30
2022-09-23T11:52:58.621Z,5.03
2022-09-23T11:55:27.622Z,6.00
2022-09-23T11:57:56.126Z,6.10
2022-09-23T12:00:25.149Z,6.43
2022-09-23T12:03:04.692Z,5.50
2022-09-23T12:05:35.487Z,6.03
2022-09-23T12:08:05.708Z,7.40
2022-09-23T12:10:38.224Z,4.97
2022-09-23T12:13:07.242Z,8.90
2022-09-23T12:15:39.606Z,6.63
2022-09-23T12:18:12.783Z,6.10
2022-09-23T12:20:44.270Z,3.93
2022-09-23T12:23:16.189Z,5.87
2022-09-23T12:25:46.680Z,6.20
2022-09-23T12:28:16.572Z,4.37
2022-09-23T12:30:44.871Z,4.07
2022-09-23T12:33:18.237Z,3.30
2022-09-23T12:35:47.189Z,3.17
2022-09-23T12:38:15.902Z,5.90
2022-09-23T12:40:44.772Z,4.77
2022-09-23T12:43:20.104Z,7.43
2022-09-23T12:45:48.523Z,2.13
2022-09-23T12:48:44.697Z,3.50
2022-09-23T12:51:23.099Z,5.87
2022-09-23T12:54:01.665Z,6.77
2022-09-23T12:56:30.992Z,2.57
2022-09-23T12:59:03.207Z,4.17
2022-09-23T13:01:37.291Z,2.30
2022-09-23T13:04:24.466Z,3.90
2022-09-23T13:06:58.469Z,4.57
2022-09-23T13:09:27.417Z,2.33
2022-09-23T13:11:55.602Z,2.93
2022-09-23T13:14:27.501Z,6.53
2022-09-23T13:16:58.288Z,4.50
2022-09-23T13:19:47.179Z,2.80
2022-09-23T13:22:15.544Z,3.63
2022-09-23T13:24:44.460Z,5.07
2022-09-23T13:27:14.768Z,4.27
2022-09-23T13:29:44.295Z,5.10
2022-09-23T13:32:13.331Z,2.87
2022-09-23T13:34:41.674Z,2.27
2022-09-23T13:37:19.001Z,4.57
2022-09-23T13:39:50.398Z,3.47
2022-09-23T13:42:20.385Z,2.50
2022-09-23T13:44:48.589Z,2.67
2022-09-23T13:47:16.768Z,2.20
2022-09-23T13:49:48.075Z,2.97
2022-09-23T13:52:24.932Z,3.03
2022-09-23T13:54:53.187Z,1.67
2022-09-23T13:57:27.828Z,2.80
2022-09-23T13:59:56.186Z,3.13
2022-09-23T14:02:25.800Z,3.63
2022-09-23T14:04:54.083Z,3.77
2022-09-23T14:07:25.939Z,2.27
2022-09-23T14:09:54.428Z,3.17
2022-09-23T14:12:22.942Z,2.33
2022-09-23T14:14:51.822Z,1.70
2022-09-23T14:17:21.474Z,1.87
2022-09-23T14:19:49.809Z,1.87
2022-09-23T14:22:25.766Z,1.97
2022-09-23T14:24:54.052Z,1.60
2022-09-23T14:27:23.642Z,5.83
2022-09-23T14:29:51.918Z,1.03
2022-09-23T14:32:21.336Z,2.27
2022-09-23T14:34:51.206Z,1.43
2022-09-23T14:37:45.672Z,2.67
2022-09-23T14:40:19.768Z,6.20
2022-09-23T14:42:50.689Z,1.70
2022-09-23T14:45:19.798Z,2.13
2022-09-23T14:47:49.302Z,1.73
2022-09-23T14:50:35.982Z,1.93
2022-09-23T14:53:05.710Z,4.43
2022-09-23T14:55:33.972Z,2.30
2022-09-23T14:58:03.269Z,2.23
2022-09-23T15:00:31.684Z,2.60
2022-09-23T15:03:00.215Z,3.87
2022-09-23T15:05:32.611Z,1.80
2022-09-23T15:08:02.230Z,4.27
2022-09-23T15:10:32.201Z,3.43
2022-09-23T15:13:03.619Z,1.53
2022-09-23T15:15:31.899Z,1.93
2022-09-23T15:18:04.866Z,2.33
2022-09-23T15:20:33.119Z,1.57
2022-09-23T15:23:01.695Z,2.80
2022-09-23T15:25:33.861Z,2.60
2022-09-23T15:28:03.493Z,1.27
2022-09-23T15:30:32.566Z,1.93
2022-09-23T15:33:01.074Z,1.87
2022-09-23T15:35:29.371Z,5.63
2022-09-23T15:37:58.840Z,2.40
2022-09-23T15:40:27.580Z,2.23
2022-09-23T15:42:57.880Z,2.00
2022-09-23T15:45:30.221Z,2.20
2022-09-23T15:47:59.117Z,1.83
2022-09-23T15:50:27.343Z,2.57
2022-09-23T15:52:55.665Z,2.90
2022-09-23T15:55:24.145Z,3.53
2022-09-23T15:57:52.558Z,2.63
2022-09-23T16:00:22.260Z,4.20
2022-09-23T16:02:50.583Z,2.10
2022-09-23T16:05:20.758Z,3.13
2022-09-23T16:07:52.272Z,3.50
2022-09-23T16:10:21.602Z,2.63
2022-09-23T16:12:49.881Z,4.00
2022-09-23T16:15:19.098Z,2.00
2022-09-23T16:17:48.699Z,2.37
2022-09-23T16:20:18.002Z,3.80
2022-09-23T16:22:47.058Z,3.37
2022-09-23T16:25:15.650Z,6.10
2022-09-23T16:27:44.985Z,2.23
2022-09-23T16:30:13.496Z,2.37
2022-09-23T16:32:42.307Z,2.47
2022-09-23T16:35:12.295Z,5.93
2022-09-23T16:37:40.562Z,3.20
2022-09-23T16:40:09.771Z,5.17
2022-09-23T16:42:39.253Z,4.73
2022-09-23T16:45:08.045Z,2.87
2022-09-23T16:47:36.283Z,3.10
2022-09-23T16:50:04.676Z,5.03
2022-09-23T16:52:34.410Z,3.43
2022-09-23T16:55:02.698Z,3.63
2022-09-23T16:57:30.918Z,2.40
2022-09-23T17:00:16.706Z,3.67
2022-09-23T17:03:02.809Z,2.83
2022-09-23T17:05:31.161Z,2.33
2022-09-23T17:08:01.150Z,3.20
2022-09-23T17:10:29.364Z,3.90
2022-09-23T17:12:58.844Z,3.70
2022-09-23T17:15:27.064Z,2.73
2022-09-23T17:17:55.327Z,6.53
2022-09-23T17:20:23.659Z,3.73
2022-09-23T17:22:51.910Z,4.00
2022-09-23T17:25:21.480Z,3.67
2022-09-23T17:27:49.842Z,5.03
2022-09-23T17:30:18.111Z,5.00
2022-09-23T17:32:47.224Z,3.00
2022-09-23T17:35:15.592Z,5.07
2022-09-23T17:37:43.886Z,2.10
2022-09-23T17:40:12.615Z,3.57
2022-09-23T17:42:42.695Z,2.87
2022-09-23T17:45:12.400Z,4.77
2022-09-23T17:47:41.808Z,4.30
2022-09-23T17:50:10.420Z,3.67
2022-09-23T17:52:38.849Z,4.07
2022-09-23T17:55:07.897Z,7.97
2022-09-23T17:57:36.258Z,3.30
2022-09-23T18:00:06.389Z,3.80
2022-09-23T18:02:34.690Z,4.50
2022-09-23T18:05:03.064Z,6.53
2022-09-23T18:07:31.332Z,7.27
2022-09-23T18:09:59.580Z,7.60
2022-09-23T18:12:27.933Z,8.23
2022-09-23T18:14:56.169Z,6.80
2022-09-23T18:17:25.827Z,7.27
2022-09-23T18:19:54.159Z,3.37
2022-09-23T18:22:22.437Z,5.87
2022-09-23T18:24:50.641Z,5.77
2022-09-23T18:27:18.947Z,8.97
2022-09-23T18:29:47.212Z,5.33
2022-09-23T18:32:15.500Z,4.63
2022-09-23T18:34:45.169Z,4.63
2022-09-23T18:37:16.085Z,4.77
2022-09-23T18:39:44.882Z,4.73
2022-09-23T18:42:13.574Z,7.33
2022-09-23T18:44:41.823Z,4.17
2022-09-23T18:47:30.439Z,3.30
2022-09-23T18:50:17.414Z,5.33
2022-09-23T18:52:45.801Z,7.13
2022-09-23T18:55:14.168Z,3.63
2022-09-23T18:57:42.520Z,4.23
2022-09-23T19:00:11.500Z,4.90
2022-09-23T19:02:39.796Z,5.03
2022-09-23T19:05:09.988Z,5.97
2022-09-23T19:07:38.333Z,6.67
2022-09-23T19:10:06.969Z,9.30
2022-09-23T19:12:35.194Z,8.67
2022-09-23T19:15:03.601Z,7.73
2022-09-23T19:17:31.889Z,6.87
2022-09-23T19:20:00.139Z,11.37
2022-09-23T19:22:30.550Z,14.07
2022-09-23T19:24:58.806Z,8.60
2022-09-23T19:27:27.121Z,12.30
2022-09-23T19:29:55.540Z,11.67
2022-09-23T19:32:27.046Z,11.60
2022-09-23T19:34:55.409Z,11.73
2022-09-23T19:37:23.640Z,17.27
2022-09-23T19:39:53.231Z,13.70
2022-09-23T19:42:22.035Z,12.30
2022-09-23T19:44:54.568Z,12.67
2022-09-23T19:47:22.942Z,15.00
2022-09-23T19:49:51.256Z,15.37
2022-09-23T19:52:19.500Z,12.00
2022-09-23T19:54:48.716Z,15.70
2022-09-23T19:57:19.412Z,15.23
2022-09-23T19:59:47.678Z,15.53
2022-09-23T20:02:16.823Z,13.83
2022-09-23T20:04:45.166Z,14.33
2022-09-23T20:07:14.986Z,20.97
2022-09-23T20:09:43.331Z,17.43
2022-09-23T20:12:11.612Z,16.13
2022-09-23T20:14:41.229Z,22.90
2022-09-23T20:17:09.565Z,20.60
2022-09-23T20:19:37.793Z,19.63
2022-09-23T20:22:23.858Z,19.30
2022-09-23T20:24:52.078Z,22.30
2022-09-23T20:27:19.298Z,22.83
2022-09-23T20:29:50.165Z,17.87
2022-09-23T20:32:18.381Z,24.80
2022-09-23T20:34:48.760Z,18.47
2022-09-23T20:37:18.046Z,19.07
2022-09-23T20:39:46.517Z,21.10
2022-09-23T20:42:14.825Z,17.93
2022-09-23T20:44:43.372Z,21.43
2022-09-23T20:47:14.069Z,20.97
2022-09-23T20:49:43.849Z,15.93
2022-09-23T20:52:12.078Z,19.37
2022-09-23T20:54:40.286Z,19.97
2022-09-23T20:57:08.869Z,18.90
2022-09-23T20:59:37.194Z,17.57
2022-09-23T21:02:05.651Z,16.40
2022-09-23T21:04:35.814Z,17.87
2022-09-23T21:07:04.244Z,13.47
2022-09-23T21:09:32.463Z,12.73
2022-09-23T21:12:00.779Z,14.90
2022-09-23T21:14:29.018Z,11.03
2022-09-23T21:16:57.222Z,11.00
2022-09-23T21:19:26.349Z,9.60
2022-09-23T21:21:55.998Z,12.63
2022-09-23T21:25:03.479Z,11.80
2022-09-23T21:27:12.638Z,10.17
2022-09-23T21:29:41.130Z,9.60
2022-09-23T21:32:10.340Z,7.63
2022-09-23T21:34:38.682Z,10.03
2022-09-23T21:37:08.363Z,10.17
2022-09-23T21:39:36.559Z,9.03
2022-09-23T21:42:05.457Z,6.77
2022-09-23T21:44:33.648Z,8.93
2022-09-23T21:47:01.912Z,7.30
2022-09-23T21:49:32.319Z,6.23
2022-09-23T21:52:00.760Z,6.97
2022-09-23T21:54:31.249Z,7.07
2022-09-23T21:57:00.450Z,6.93
2022-09-23T21:59:29.080Z,6.47
2022-09-23T22:01:57.324Z,5.93
2022-09-23T22:04:25.608Z,6.20
2022-09-23T22:06:53.942Z,7.73
2022-09-23T22:09:22.548Z,3.43
2022-09-23T22:12:09.994Z,7.03
2022-09-23T22:14:39.061Z,3.90
2022-09-23T22:17:07.764Z,5.07
2022-09-23T22:19:40.206Z,3.63
2022-09-23T22:22:12.812Z,4.77
2022-09-23T22:24:40.989Z,4.80
2022-09-23T22:27:10.582Z,4.00
2022-09-23T22:29:56.761Z,2.27
2022-09-23T22:32:43.560Z,3.77
2022-09-23T22:35:12.152Z,2.83
2022-09-23T22:37:40.365Z,4.43
2022-09-23T22:40:09.521Z,4.27
2022-09-23T22:42:40.795Z,2.50
2022-09-23T22:45:09.633Z,7.20
2022-09-23T22:47:38.095Z,4.47
2022-09-23T22:50:06.502Z,4.50
2022-09-23T22:52:34.864Z,3.80
2022-09-23T22:55:03.671Z,3.37
2022-09-23T22:57:32.418Z,2.40
2022-09-23T23:00:02.174Z,3.10
2022-09-23T23:02:31.451Z,4.50
2022-09-23T23:05:00.441Z,2.27
2022-09-23T23:07:28.685Z,3.83
2022-09-23T23:09:57.973Z,2.57
2022-09-23T23:12:26.238Z,2.83
2022-09-23T23:14:54.810Z,2.47
2022-09-23T23:17:24.400Z,4.77
2022-09-23T23:19:52.619Z,4.47
2022-09-23T23:22:20.843Z,3.57
2022-09-23T23:24:49.049Z,2.40
2022-09-23T23:27:17.306Z,3.27
2022-09-23T23:29:45.528Z,2.00
2022-09-23T23:32:13.854Z,2.97
2022-09-23T23:34:43.553Z,5.13
2022-09-23T23:37:11.846Z,2.40
2022-09-23T23:39:40.019Z,1.83
2022-09-23T23:42:08.254Z,1.93
2022-09-23T23:44:36.837Z,2.77
2022-09-23T23:47:05.190Z,1.97
2022-09-23T23:49:33.504Z,1.63
2022-09-23T23:52:03.435Z,2.47
2022-09-23T23:54:32.181Z,1.53
2022-09-23T23:57:00.578Z,3.20
2022-09-23T23:59:28.897Z,1.30
